createdAt,value
2018-11-06T00:02:28.014Z,51.77
2018-11-06T00:05:01.701Z,52.58
2018-11-06T00:07:30.513Z,50.30
2018-11-06T00:09:59.229Z,50.48
2018-11-06T00:12:27.717Z,50.92
2018-11-06T00:14:57.996Z,46.02
2018-11-06T00:17:26.298Z,45.95
2018-11-06T00:19:54.596Z,46.92
2018-11-06T00:22:22.977Z,49.33
2018-11-06T00:24:51.303Z,47.93
2018-11-06T00:27:19.618Z,52.88
2018-11-06T00:29:47.970Z,44.80
2018-11-06T00:32:16.291Z,50.63
2018-11-06T00:34:44.593Z,49.48
2018-11-06T00:37:12.921Z,44.95
2018-11-06T00:39:41.249Z,49.53
2018-11-06T00:42:09.600Z,46.28
2018-11-06T00:44:37.896Z,48.02
2018-11-06T00:47:07.029Z,44.45
2018-11-06T00:49:35.328Z,52.27
2018-11-06T00:52:03.673Z,49.90
2018-11-06T00:54:32.013Z,44.75
2018-11-06T00:57:00.349Z,41.15
2018-11-06T00:59:28.669Z,50.52
2018-11-06T01:01:56.992Z,50.17
2018-11-06T01:04:25.326Z,51.23
2018-11-06T01:06:53.661Z,46.15
2018-11-06T01:09:21.974Z,50.43
2018-11-06T01:11:50.302Z,53.70
2018-11-06T01:14:18.617Z,49.33
2018-11-06T01:16:46.948Z,51.75
2018-11-06T01:19:15.284Z,51.35
2018-11-06T01:21:43.629Z,45.90
2018-11-06T01:24:11.937Z,45.35
2018-11-06T01:26:40.236Z,47.53
2018-11-06T01:29:09.011Z,48.40
2018-11-06T01:31:37.325Z,46.95
2018-11-06T01:34:06.409Z,51.28
2018-11-06T01:36:34.708Z,49.45
2018-11-06T01:39:04.821Z,44.05
2018-11-06T01:41:33.188Z,45.65
2018-11-06T01:44:01.549Z,51.42
2018-11-06T01:46:29.861Z,45.15
2018-11-06T01:48:58.181Z,49.50
2018-11-06T01:51:26.496Z,46.48
2018-11-06T01:53:54.817Z,42.78
2018-11-06T01:56:23.228Z,52.65
2018-11-06T01:58:53.185Z,52.55
2018-11-06T02:01:21.559Z,52.40
2018-11-06T02:03:49.905Z,59.10
2018-11-06T02:06:18.212Z,51.42
2018-11-06T02:08:46.544Z,46.50
2018-11-06T02:11:14.841Z,40.30
2018-11-06T02:13:43.165Z,44.23
2018-11-06T02:16:11.522Z,45.15
2018-11-06T02:18:40.820Z,47.03
2018-11-06T02:21:09.163Z,45.70
2018-11-06T02:23:37.461Z,38.65
2018-11-06T02:26:05.806Z,49.67
2018-11-06T02:28:34.125Z,45.75
2018-11-06T02:31:02.434Z,45.65
2018-11-06T02:33:30.778Z,46.30
2018-11-06T02:35:59.098Z,42.35
2018-11-06T02:38:27.389Z,45.48
2018-11-06T02:40:55.713Z,43.25
2018-11-06T02:43:24.050Z,43.87
2018-11-06T02:45:52.361Z,48.58
2018-11-06T02:48:20.673Z,48.48
2018-11-06T02:50:48.973Z,49.95
2018-11-06T02:53:17.289Z,52.25
2018-11-06T02:55:46.188Z,40.33
2018-11-06T02:58:14.498Z,46.10
2018-11-06T03:00:42.800Z,42.55
2018-11-06T03:03:11.103Z,50.17
2018-11-06T03:05:39.417Z,46.25
2018-11-06T03:08:08.406Z,47.00
2018-11-06T03:10:36.713Z,47.05
2018-11-06T03:13:06.447Z,43.35
2018-11-06T03:15:35.512Z,46.75
2018-11-06T03:18:04.773Z,44.90
2018-11-06T03:20:33.089Z,53.15
2018-11-06T03:23:01.406Z,48.05
2018-11-06T03:25:29.740Z,47.10
2018-11-06T03:27:58.057Z,40.73
2018-11-06T03:30:26.463Z,36.63
2018-11-06T03:32:54.805Z,41.83
2018-11-06T03:35:23.108Z,53.42
2018-11-06T03:37:51.413Z,41.80
2018-11-06T03:40:19.759Z,44.23
2018-11-06T03:42:48.068Z,45.92
2018-11-06T03:45:16.370Z,45.52
2018-11-06T03:47:44.685Z,39.88
2018-11-06T03:50:13.458Z,49.23
2018-11-06T03:52:41.777Z,47.70
2018-11-06T03:55:10.970Z,48.00
2018-11-06T03:57:39.333Z,44.45
2018-11-06T04:00:09.722Z,48.48
2018-11-06T04:02:38.363Z,45.80
2018-11-06T04:05:07.796Z,54.00
2018-11-06T04:07:36.144Z,48.20
2018-11-06T04:10:05.289Z,43.63
2018-11-06T04:12:33.589Z,45.85
2018-11-06T04:15:02.756Z,36.68
2018-11-06T04:17:31.063Z,49.50
2018-11-06T04:19:59.555Z,48.48
2018-11-06T04:22:27.887Z,42.80
2018-11-06T04:24:56.209Z,41.45
2018-11-06T04:27:24.513Z,52.95
2018-11-06T04:29:52.855Z,48.00
2018-11-06T04:32:21.193Z,43.35
2018-11-06T04:34:49.521Z,44.30
2018-11-06T04:37:17.829Z,39.60
2018-11-06T04:39:46.152Z,51.75
2018-11-06T04:42:14.738Z,43.35
2018-11-06T04:44:43.062Z,42.55
2018-11-06T04:47:11.381Z,48.48
2018-11-06T04:49:39.718Z,48.23
2018-11-06T04:52:08.017Z,42.70
2018-11-06T04:54:36.355Z,47.00
2018-11-06T04:57:04.767Z,36.13
2018-11-06T04:59:33.113Z,41.68
2018-11-06T05:02:01.472Z,39.55
2018-11-06T05:04:29.745Z,39.18
2018-11-06T05:06:58.160Z,45.85
2018-11-06T05:09:26.382Z,43.90
2018-11-06T05:11:54.703Z,42.27
2018-11-06T05:14:23.065Z,35.78
2018-11-06T05:16:51.929Z,43.13
2018-11-06T05:19:20.239Z,41.53
2018-11-06T05:21:48.592Z,45.33
2018-11-06T05:24:16.953Z,44.10
2018-11-06T05:26:45.266Z,46.33
2018-11-06T05:29:13.699Z,42.38
2018-11-06T05:31:42.053Z,39.58
2018-11-06T05:34:10.370Z,50.10
2018-11-06T05:36:38.693Z,53.55
2018-11-06T05:39:08.749Z,42.55
2018-11-06T05:41:37.061Z,43.00
2018-11-06T05:44:05.476Z,47.23
2018-11-06T05:46:33.866Z,40.88
2018-11-06T05:49:02.611Z,46.58
2018-11-06T05:51:31.083Z,45.88
2018-11-06T05:53:59.487Z,38.88
2018-11-06T05:56:27.808Z,39.23
2018-11-06T05:58:56.953Z,41.05
2018-11-06T06:01:25.371Z,37.00
2018-11-06T06:03:53.725Z,40.23
2018-11-06T06:06:22.020Z,38.60
2018-11-06T06:08:50.380Z,42.25
2018-11-06T06:11:18.744Z,37.90
2018-11-06T06:13:48.097Z,43.55
2018-11-06T06:16:17.090Z,44.03
2018-11-06T06:18:46.503Z,42.67
2018-11-06T06:21:17.039Z,41.18
2018-11-06T06:23:46.697Z,36.10
2018-11-06T06:26:15.140Z,36.68
2018-11-06T06:28:44.391Z,40.30
2018-11-06T06:31:13.687Z,37.55
2018-11-06T06:33:42.847Z,33.92
2018-11-06T06:36:13.920Z,40.45
2018-11-06T06:38:43.862Z,46.08
2018-11-06T06:41:12.483Z,40.15
2018-11-06T06:43:41.002Z,45.60
2018-11-06T06:46:09.349Z,42.83
2018-11-06T06:48:38.136Z,37.65
2018-11-06T06:51:07.153Z,37.90
2018-11-06T06:53:35.496Z,38.58
2018-11-06T06:56:05.253Z,37.33
2018-11-06T06:58:34.857Z,38.25
2018-11-06T07:01:03.315Z,34.98
2018-11-06T07:03:32.248Z,37.30
2018-11-06T07:06:00.630Z,44.38
2018-11-06T07:08:34.340Z,61.00
2018-11-06T07:11:03.532Z,39.80
2018-11-06T07:13:31.846Z,41.37
2018-11-06T07:16:00.148Z,38.23
2018-11-06T07:18:28.499Z,42.25
2018-11-06T07:20:56.790Z,38.08
2018-11-06T07:23:25.160Z,38.63
2018-11-06T07:25:53.512Z,44.23
2018-11-06T07:28:21.856Z,41.08
2018-11-06T07:30:50.179Z,39.20
2018-11-06T07:33:18.558Z,39.95
2018-11-06T07:35:47.167Z,37.33
2018-11-06T07:38:15.260Z,33.40
2018-11-06T07:40:43.631Z,42.00
2018-11-06T07:43:11.974Z,39.00
2018-11-06T07:45:40.306Z,33.70
2018-11-06T07:48:08.621Z,36.60
2018-11-06T07:50:36.951Z,37.23
2018-11-06T07:53:05.280Z,34.90
2018-11-06T07:55:33.624Z,38.80
2018-11-06T07:58:01.976Z,35.70
2018-11-06T08:00:30.273Z,39.67
2018-11-06T08:02:58.592Z,32.20
2018-11-06T08:05:26.909Z,40.10
2018-11-06T08:07:55.517Z,31.33
2018-11-06T08:10:23.864Z,31.30
2018-11-06T08:12:53.338Z,34.53
2018-11-06T08:15:21.818Z,35.23
2018-11-06T08:17:50.288Z,36.67
2018-11-06T08:20:18.682Z,40.40
2018-11-06T08:22:47.080Z,33.60
2018-11-06T08:25:16.207Z,30.30
2018-11-06T08:27:45.048Z,56.40
2018-11-06T08:30:13.765Z,31.67
2018-11-06T08:32:43.692Z,31.67
2018-11-06T08:35:13.401Z,32.83
2018-11-06T08:37:41.906Z,32.33
2018-11-06T08:40:11.710Z,31.00
2018-11-06T08:42:40.060Z,29.77
2018-11-06T08:45:09.793Z,30.20
2018-11-06T08:47:38.184Z,29.03
2018-11-06T08:50:07.816Z,29.30
2018-11-06T08:52:36.176Z,32.20
2018-11-06T08:55:04.695Z,24.60
2018-11-06T08:57:33.021Z,24.10
2018-11-06T09:00:01.781Z,26.53
2018-11-06T09:02:30.093Z,25.30
2018-11-06T09:04:58.423Z,28.97
2018-11-06T09:07:26.741Z,27.73
2018-11-06T09:09:55.581Z,29.47
2018-11-06T09:12:23.911Z,25.20
2018-11-06T09:14:52.232Z,28.70
2018-11-06T09:17:21.253Z,28.83
2018-11-06T09:19:49.978Z,26.27
2018-11-06T09:22:18.296Z,23.40
2018-11-06T09:24:46.642Z,23.53
2018-11-06T09:27:15.055Z,27.43
2018-11-06T09:29:43.369Z,24.83
2018-11-06T09:32:11.825Z,26.77
2018-11-06T09:34:40.155Z,27.90
2018-11-06T09:37:09.153Z,33.73
2018-11-06T09:39:37.553Z,27.10
2018-11-06T09:42:06.232Z,24.17
2018-11-06T09:44:34.577Z,26.03
2018-11-06T09:47:02.890Z,28.30
2018-11-06T09:49:31.201Z,36.60
2018-11-06T09:51:59.590Z,27.30
2018-11-06T09:54:27.842Z,24.67
2018-11-06T09:56:56.177Z,23.90
2018-11-06T09:59:24.494Z,22.33
2018-11-06T10:01:52.902Z,26.20
2018-11-06T10:04:21.196Z,26.13
2018-11-06T10:06:49.764Z,27.50
2018-11-06T10:09:18.024Z,24.80
2018-11-06T10:11:46.304Z,23.43
2018-11-06T10:14:14.628Z,33.13
2018-11-06T10:16:42.936Z,23.63
2018-11-06T10:19:11.306Z,23.20
2018-11-06T10:21:39.608Z,26.70
2018-11-06T10:24:07.992Z,24.93
2018-11-06T10:26:36.318Z,21.50
2018-11-06T10:29:05.412Z,20.47
2018-11-06T10:31:34.408Z,18.73
2018-11-06T10:34:02.730Z,17.83
2018-11-06T10:36:31.042Z,28.27
2018-11-06T10:38:59.733Z,24.23
2018-11-06T10:41:28.145Z,19.77
2018-11-06T10:43:56.475Z,22.77
2018-11-06T10:46:24.788Z,16.50
2018-11-06T10:48:53.139Z,20.03
2018-11-06T10:51:21.444Z,22.10
2018-11-06T10:53:49.765Z,19.27
2018-11-06T10:56:18.084Z,22.80
2018-11-06T10:58:46.485Z,18.40
2018-11-06T11:01:20.045Z,21.30
2018-11-06T11:03:53.672Z,15.53
2018-11-06T11:06:22.049Z,22.57
2018-11-06T11:08:50.336Z,19.77
2018-11-06T11:11:18.621Z,18.10
2018-11-06T11:13:47.613Z,18.93
2018-11-06T11:16:16.512Z,19.70
2018-11-06T11:18:44.829Z,18.47
2018-11-06T11:21:13.153Z,15.90
2018-11-06T11:23:41.444Z,19.30
2018-11-06T11:26:09.767Z,14.13
2018-11-06T11:28:38.073Z,16.73
2018-11-06T11:31:06.395Z,17.37
2018-11-06T11:33:34.697Z,16.43
2018-11-06T11:36:03.031Z,20.03
2018-11-06T11:38:31.313Z,20.13
2018-11-06T11:40:59.610Z,14.87
2018-11-06T11:43:27.987Z,14.70
2018-11-06T11:45:56.334Z,20.07
2018-11-06T11:48:24.705Z,17.50
2018-11-06T11:50:53.001Z,17.63
2018-11-06T11:53:21.348Z,17.30
2018-11-06T11:55:49.640Z,26.77
2018-11-06T11:58:18.708Z,27.93
2018-11-06T12:00:47.061Z,25.90
2018-11-06T12:03:15.384Z,16.50
2018-11-06T12:05:43.704Z,13.33
2018-11-06T12:08:12.054Z,15.37
2018-11-06T12:10:40.353Z,14.53
2018-11-06T12:13:08.649Z,15.90
2018-11-06T12:15:36.969Z,19.77
2018-11-06T12:18:05.384Z,16.37
2018-11-06T12:20:33.727Z,15.77
2018-11-06T12:23:02.070Z,15.37
2018-11-06T12:25:30.558Z,15.37
2018-11-06T12:27:58.718Z,13.20
2018-11-06T12:30:27.056Z,19.63
2018-11-06T12:32:55.361Z,14.33
2018-11-06T12:35:23.676Z,14.57
2018-11-06T12:37:52.030Z,15.40
2018-11-06T12:40:20.587Z,13.60
2018-11-06T12:42:49.358Z,11.57
2018-11-06T12:45:17.788Z,13.37
2018-11-06T12:47:46.688Z,17.40
2018-11-06T12:50:15.127Z,14.90
2018-11-06T12:52:44.093Z,15.13
2018-11-06T12:55:13.670Z,13.17
2018-11-06T12:57:41.979Z,16.47
2018-11-06T13:00:13.031Z,16.90
2018-11-06T13:02:41.658Z,13.83
2018-11-06T13:05:10.310Z,11.27
2018-11-06T13:07:39.722Z,15.87
2018-11-06T13:10:08.369Z,11.93
2018-11-06T13:12:36.816Z,11.70
2018-11-06T13:15:05.857Z,9.17
2018-11-06T13:17:35.245Z,12.70
2018-11-06T13:20:03.864Z,11.10
2018-11-06T13:22:32.197Z,16.10
2018-11-06T13:25:00.504Z,9.53
2018-11-06T13:27:28.803Z,8.67
2018-11-06T13:29:57.167Z,13.40
2018-11-06T13:32:25.535Z,8.70
2018-11-06T13:34:53.861Z,13.03
2018-11-06T13:37:22.198Z,12.03
2018-11-06T13:39:50.961Z,10.90
2018-11-06T13:42:19.311Z,11.03
2018-11-06T13:44:47.847Z,10.33
2018-11-06T13:47:16.440Z,11.70
2018-11-06T13:49:44.743Z,12.80
2018-11-06T13:52:13.093Z,20.53
2018-11-06T13:54:41.373Z,9.93
2018-11-06T13:57:09.709Z,11.70
2018-11-06T13:59:38.022Z,22.97
2018-11-06T14:02:06.403Z,10.40
2018-11-06T14:04:34.696Z,10.60
2018-11-06T14:07:03.625Z,9.97
2018-11-06T14:09:31.905Z,8.07
2018-11-06T14:12:00.204Z,14.40
2018-11-06T14:14:28.515Z,13.43
2018-11-06T14:16:56.829Z,15.53
2018-11-06T14:19:25.124Z,7.90
2018-11-06T14:21:53.449Z,13.83
2018-11-06T14:24:21.784Z,12.10
2018-11-06T14:26:50.133Z,9.87
2018-11-06T14:29:18.413Z,12.67
2018-11-06T14:31:47.532Z,11.20
2018-11-06T14:34:15.813Z,20.73
2018-11-06T14:36:44.132Z,10.80
2018-11-06T14:39:12.515Z,26.43
2018-11-06T14:41:40.812Z,7.60
2018-11-06T14:44:09.117Z,11.43
2018-11-06T14:46:37.447Z,12.13
2018-11-06T14:49:06.129Z,12.47
2018-11-06T14:51:34.332Z,14.67
2018-11-06T14:54:02.668Z,13.17
2018-11-06T14:56:31.017Z,14.73
2018-11-06T14:58:59.296Z,12.43
2018-11-06T15:01:27.805Z,11.40
2018-11-06T15:03:56.108Z,9.43
2018-11-06T15:06:24.422Z,15.67
2018-11-06T15:08:53.419Z,15.33
2018-11-06T15:11:21.713Z,12.30
2018-11-06T15:13:50.065Z,18.80
2018-11-06T15:16:18.547Z,18.27
2018-11-06T15:18:46.865Z,11.90
2018-11-06T15:21:16.388Z,10.83
2018-11-06T15:23:44.759Z,10.70
2018-11-06T15:26:13.878Z,14.00
2018-11-06T15:28:43.001Z,19.40
2018-11-06T15:31:11.404Z,17.70
2018-11-06T15:33:40.105Z,18.20
2018-11-06T15:36:10.932Z,15.77
2018-11-06T15:38:40.456Z,19.20
2018-11-06T15:41:09.001Z,23.63
2018-11-06T15:43:38.559Z,21.10
2018-11-06T15:46:07.402Z,18.03
2018-11-06T15:48:36.870Z,13.57
2018-11-06T15:51:06.266Z,26.50
2018-11-06T15:53:34.838Z,22.60
2018-11-06T15:56:03.174Z,26.03
2018-11-06T15:58:32.192Z,22.17
2018-11-06T16:01:02.265Z,19.40
2018-11-06T16:03:31.307Z,21.20
2018-11-06T16:05:59.925Z,20.23
2018-11-06T16:08:28.714Z,31.13
2018-11-06T16:10:57.981Z,19.70
2018-11-06T16:13:26.292Z,16.50
2018-11-06T16:15:54.618Z,21.77
2018-11-06T16:18:23.100Z,13.17
2018-11-06T16:20:51.762Z,16.67
2018-11-06T16:23:21.119Z,17.77
2018-11-06T16:25:49.481Z,24.47
2018-11-06T16:28:18.277Z,23.90
2018-11-06T16:30:46.983Z,17.77
2018-11-06T16:33:16.385Z,13.70
2018-11-06T16:35:46.151Z,16.40
2018-11-06T16:38:14.545Z,15.90
2018-11-06T16:40:42.855Z,25.20
2018-11-06T16:43:11.186Z,19.23
2018-11-06T16:45:39.639Z,10.70
2018-11-06T16:48:08.021Z,16.50
2018-11-06T16:50:36.332Z,20.63
2018-11-06T16:53:04.836Z,17.10
2018-11-06T16:55:33.389Z,19.07
2018-11-06T16:58:01.936Z,16.17
2018-11-06T17:00:30.610Z,14.50
2018-11-06T17:02:58.885Z,14.60
2018-11-06T17:05:27.205Z,18.03
2018-11-06T17:07:55.677Z,20.47
2018-11-06T17:10:24.098Z,15.23
2018-11-06T17:12:52.418Z,18.43
2018-11-06T17:15:22.553Z,14.23
2018-11-06T17:17:52.549Z,15.57
2018-11-06T17:20:21.550Z,17.00
2018-11-06T17:22:50.495Z,16.03
2018-11-06T17:25:20.937Z,17.40
2018-11-06T17:27:50.151Z,16.97
2018-11-06T17:30:19.156Z,27.87
2018-11-06T17:32:47.620Z,22.33
2018-11-06T17:35:17.245Z,15.17
2018-11-06T17:37:46.603Z,13.47
2018-11-06T17:40:16.667Z,17.37
2018-11-06T17:42:45.096Z,17.60
2018-11-06T17:45:16.894Z,19.23
2018-11-06T17:47:45.820Z,17.53
2018-11-06T17:50:14.997Z,17.43
2018-11-06T17:52:43.316Z,17.03
2018-11-06T17:55:15.007Z,17.30
2018-11-06T17:57:43.370Z,18.93
2018-11-06T18:00:15.314Z,25.83
2018-11-06T18:02:43.840Z,25.47
2018-11-06T18:05:13.201Z,17.93
2018-11-06T18:07:42.129Z,18.00
2018-11-06T18:10:12.244Z,18.80
2018-11-06T18:12:40.561Z,19.73
2018-11-06T18:15:08.965Z,15.90
2018-11-06T18:17:38.031Z,18.33
2018-11-06T18:20:07.914Z,19.00
2018-11-06T18:22:37.342Z,25.53
2018-11-06T18:25:06.647Z,19.13
2018-11-06T18:27:35.330Z,15.57
2018-11-06T18:30:05.448Z,17.20
2018-11-06T18:32:35.070Z,21.03
2018-11-06T18:35:03.464Z,20.33
2018-11-06T18:37:33.271Z,20.33
2018-11-06T18:40:03.100Z,19.00
2018-11-06T18:42:31.471Z,21.13
2018-11-06T18:44:59.801Z,24.60
2018-11-06T18:47:28.321Z,19.10
2018-11-06T18:49:56.486Z,23.03
2018-11-06T18:52:24.798Z,19.40
2018-11-06T18:54:53.164Z,19.77
2018-11-06T18:57:21.798Z,16.23
2018-11-06T18:59:51.801Z,24.07
2018-11-06T19:02:21.333Z,26.13
2018-11-06T19:04:50.516Z,19.20
2018-11-06T19:07:20.118Z,29.63
2018-11-06T19:09:49.706Z,21.80
2018-11-06T19:12:18.115Z,18.60
2018-11-06T19:14:46.705Z,16.83
2018-11-06T19:17:15.069Z,21.10
2018-11-06T19:19:43.358Z,20.80
2018-11-06T19:22:11.769Z,16.30
2018-11-06T19:24:40.094Z,25.77
2018-11-06T19:27:08.416Z,22.10
2018-11-06T19:29:36.744Z,20.83
2018-11-06T19:32:05.529Z,22.90
2018-11-06T19:34:33.914Z,35.77
2018-11-06T19:37:02.237Z,19.93
2018-11-06T19:39:30.989Z,21.20
2018-11-06T19:41:59.403Z,21.33
2018-11-06T19:44:27.729Z,19.87
2018-11-06T19:46:56.054Z,19.10
2018-11-06T19:49:24.384Z,18.00
2018-11-06T19:51:55.754Z,19.93
2018-11-06T19:54:25.155Z,22.60
2018-11-06T19:56:55.021Z,22.10
2018-11-06T19:59:24.167Z,20.27
2018-11-06T20:01:53.666Z,24.77
2018-11-06T20:04:23.176Z,20.83
2018-11-06T20:06:52.269Z,28.30
2018-11-06T20:09:21.563Z,18.57
2018-11-06T20:11:51.614Z,22.20
2018-11-06T20:14:19.960Z,24.20
2018-11-06T20:16:49.263Z,21.80
2018-11-06T20:19:19.389Z,21.00
2018-11-06T20:21:48.636Z,20.77
2018-11-06T20:24:17.383Z,17.27
2018-11-06T20:26:45.686Z,18.40
2018-11-06T20:29:16.356Z,22.73
2018-11-06T20:31:44.968Z,20.63
2018-11-06T20:34:13.508Z,21.30
2018-11-06T20:36:42.900Z,23.80
2018-11-06T20:39:11.729Z,20.90
2018-11-06T20:41:40.066Z,19.17
2018-11-06T20:44:08.469Z,23.20
2018-11-06T20:46:36.806Z,27.47
2018-11-06T20:49:05.253Z,20.83
2018-11-06T20:51:34.048Z,28.07
2018-11-06T20:54:02.473Z,26.40
2018-11-06T20:56:33.266Z,31.53
2018-11-06T20:59:02.655Z,21.30
2018-11-06T21:01:33.029Z,29.23
2018-11-06T21:04:01.352Z,19.10
2018-11-06T21:06:29.694Z,21.50
2018-11-06T21:09:00.712Z,21.83
2018-11-06T21:11:29.433Z,21.10
2018-11-06T21:13:57.898Z,19.60
2018-11-06T21:16:33.183Z,22.90
2018-11-06T21:19:02.674Z,18.43
2018-11-06T21:21:31.243Z,24.87
2018-11-06T21:23:59.567Z,19.80
2018-11-06T21:26:29.422Z,31.60
2018-11-06T21:28:57.973Z,18.83
2018-11-06T21:31:26.426Z,23.80
2018-11-06T21:33:55.064Z,22.63
2018-11-06T21:36:23.580Z,19.73
2018-11-06T21:38:52.325Z,25.00
2018-11-06T21:41:20.746Z,26.27
2018-11-06T21:43:49.864Z,21.63
2018-11-06T21:46:18.209Z,21.77
2018-11-06T21:48:47.238Z,30.10
2018-11-06T21:51:15.573Z,29.70
2018-11-06T21:53:43.922Z,20.73
2018-11-06T21:56:12.266Z,22.50
2018-11-06T21:58:40.964Z,19.10
2018-11-06T22:01:09.280Z,21.90
2018-11-06T22:03:37.665Z,25.47
2018-11-06T22:06:06.063Z,20.73
2018-11-06T22:08:34.401Z,23.87
2018-11-06T22:11:02.744Z,26.40
2018-11-06T22:13:31.093Z,27.60
2018-11-06T22:15:59.897Z,21.57
2018-11-06T22:18:28.252Z,28.47
2018-11-06T22:20:56.559Z,23.83
2018-11-06T22:23:24.932Z,24.00
2018-11-06T22:25:53.349Z,20.67
2018-11-06T22:28:22.351Z,21.97
2018-11-06T22:30:50.647Z,24.70
2018-11-06T22:33:18.951Z,18.90
2018-11-06T22:35:47.289Z,29.60
2018-11-06T22:38:15.602Z,22.83
2018-11-06T22:40:43.933Z,24.20
2018-11-06T22:43:12.298Z,18.20
2018-11-06T22:45:40.739Z,20.75
2018-11-06T22:48:09.104Z,21.35
2018-11-06T22:50:37.420Z,21.93
2018-11-06T22:53:06.096Z,23.00
2018-11-06T22:55:34.408Z,21.80
2018-11-06T22:58:02.760Z,24.20
2018-11-06T23:00:36.665Z,38.50
2018-11-06T23:03:09.358Z,24.40
2018-11-06T23:05:37.750Z,22.20
2018-11-06T23:08:11.318Z,23.23
2018-11-06T23:10:39.717Z,21.53
2018-11-06T23:13:08.151Z,32.03
2018-11-06T23:15:38.245Z,23.90
2018-11-06T23:18:06.673Z,28.10
2018-11-06T23:20:35.047Z,28.27
2018-11-06T23:23:03.327Z,21.90
2018-11-06T23:25:31.669Z,23.00
2018-11-06T23:28:00.000Z,26.33
2018-11-06T23:30:28.492Z,18.73
2018-11-06T23:32:56.825Z,20.50
2018-11-06T23:35:25.146Z,22.80
2018-11-06T23:37:53.488Z,27.00
2018-11-06T23:40:21.909Z,26.62
2018-11-06T23:42:50.257Z,22.87
2018-11-06T23:45:18.578Z,26.60
2018-11-06T23:47:46.962Z,29.27
2018-11-06T23:50:15.285Z,26.50
2018-11-06T23:52:43.616Z,23.12
2018-11-06T23:55:11.989Z,25.10
2018-11-06T23:57:40.308Z,27.42
